sensor_id;sensor_type;location;lat;lon;timestamp;pressure;altitude;pressure_sealevel;temperature
61189;BMP280;47054;39.716;2.904;2023-04-29T00:01:48;100116.53;;;26.84
61189;BMP280;47054;39.716;2.904;2023-04-29T00:04:34;100107.59;;;26.83
61189;BMP280;47054;39.716;2.904;2023-04-29T00:07:18;100110.31;;;26.83
61189;BMP280;47054;39.716;2.904;2023-04-29T00:10:04;100100.63;;;26.82
61189;BMP280;47054;39.716;2.904;2023-04-29T00:12:49;100079.63;;;26.83
61189;BMP280;47054;39.716;2.904;2023-04-29T00:15:34;100084.75;;;26.81
61189;BMP280;47054;39.716;2.904;2023-04-29T00:18:20;100078.56;;;26.80
61189;BMP280;47054;39.716;2.904;2023-04-29T00:21:05;100075.06;;;26.80
61189;BMP280;47054;39.716;2.904;2023-04-29T00:23:49;100073.09;;;26.80
61189;BMP280;47054;39.716;2.904;2023-04-29T00:26:34;100079.31;;;26.81
61189;BMP280;47054;39.716;2.904;2023-04-29T00:29:19;100043.94;;;26.81
61189;BMP280;47054;39.716;2.904;2023-04-29T00:32:04;100030.03;;;26.79
61189;BMP280;47054;39.716;2.904;2023-04-29T00:34:49;100030.78;;;26.79
61189;BMP280;47054;39.716;2.904;2023-04-29T00:37:34;100033.50;;;26.79
61189;BMP280;47054;39.716;2.904;2023-04-29T00:40:18;100028.81;;;26.80
61189;BMP280;47054;39.716;2.904;2023-04-29T00:43:03;100029.59;;;26.80
61189;BMP280;47054;39.716;2.904;2023-04-29T00:45:48;100036.97;;;26.80
61189;BMP280;47054;39.716;2.904;2023-04-29T00:48:33;100043.94;;;26.81
61189;BMP280;47054;39.716;2.904;2023-04-29T00:51:18;100030.47;;;26.77
61189;BMP280;47054;39.716;2.904;2023-04-29T00:54:03;100038.94;;;26.79
61189;BMP280;47054;39.716;2.904;2023-04-29T00:56:49;100030.03;;;26.79
61189;BMP280;47054;39.716;2.904;2023-04-29T00:59:34;100012.19;;;26.78
61189;BMP280;47054;39.716;2.904;2023-04-29T01:02:19;100008.38;;;26.75
61189;BMP280;47054;39.716;2.904;2023-04-29T01:05:05;99996.28;;;26.76
61189;BMP280;47054;39.716;2.904;2023-04-29T01:11:09;99977.69;;;26.75
61189;BMP280;47054;39.716;2.904;2023-04-29T01:13:59;99976.63;;;26.72
61189;BMP280;47054;39.716;2.904;2023-04-29T01:16:50;99964.19;;;26.71
61189;BMP280;47054;39.716;2.904;2023-04-29T01:19:47;99959.53;;;26.72
61189;BMP280;47054;39.716;2.904;2023-04-29T01:22:32;99951.81;;;26.70
61189;BMP280;47054;39.716;2.904;2023-04-29T01:25:17;99961.19;;;26.69
61189;BMP280;47054;39.716;2.904;2023-04-29T01:28:47;99963.47;;;26.71
61189;BMP280;47054;39.716;2.904;2023-04-29T01:31:52;99965.84;;;26.69
61189;BMP280;47054;39.716;2.904;2023-04-29T01:34:47;99939.09;;;26.67
61189;BMP280;47054;39.716;2.904;2023-04-29T01:37:55;99906.47;;;26.67
61189;BMP280;47054;39.716;2.904;2023-04-29T01:40:49;99902.53;;;26.68
61189;BMP280;47054;39.716;2.904;2023-04-29T01:43:42;99917.00;;;26.65
61189;BMP280;47054;39.716;2.904;2023-04-29T01:46:39;99921.28;;;26.66
61189;BMP280;47054;39.716;2.904;2023-04-29T01:49:25;99905.06;;;26.63
61189;BMP280;47054;39.716;2.904;2023-04-29T01:52:09;99884.38;;;26.65
61189;BMP280;47054;39.716;2.904;2023-04-29T01:54:56;99890.59;;;26.66
61189;BMP280;47054;39.716;2.904;2023-04-29T01:57:41;99901.47;;;26.66
61189;BMP280;47054;39.716;2.904;2023-04-29T02:00:46;99891.47;;;26.63
61189;BMP280;47054;39.716;2.904;2023-04-29T02:03:31;99883.63;;;26.65
61189;BMP280;47054;39.716;2.904;2023-04-29T02:06:18;99893.72;;;26.64
61189;BMP280;47054;39.716;2.904;2023-04-29T02:09:06;99895.69;;;26.64
61189;BMP280;47054;39.716;2.904;2023-04-29T02:11:52;99893.84;;;26.61
61189;BMP280;47054;39.716;2.904;2023-04-29T02:14:37;99878.19;;;26.65
61189;BMP280;47054;39.716;2.904;2023-04-29T02:17:22;99876.66;;;26.64
61189;BMP280;47054;39.716;2.904;2023-04-29T02:20:07;99866.53;;;26.64
61189;BMP280;47054;39.716;2.904;2023-04-29T02:22:53;99854.91;;;26.64
61189;BMP280;47054;39.716;2.904;2023-04-29T02:25:38;99839.81;;;26.63
61189;BMP280;47054;39.716;2.904;2023-04-29T02:28:23;99846.00;;;26.63
61189;BMP280;47054;39.716;2.904;2023-04-29T02:31:07;99877.09;;;26.62
61189;BMP280;47054;39.716;2.904;2023-04-29T02:33:52;99883.31;;;26.63
61189;BMP280;47054;39.716;2.904;2023-04-29T02:36:37;99871.66;;;26.62
61189;BMP280;47054;39.716;2.904;2023-04-29T02:39:22;99848.63;;;26.54
61189;BMP280;47054;39.716;2.904;2023-04-29T02:42:12;99872.84;;;26.61
61189;BMP280;47054;39.716;2.904;2023-04-29T02:44:57;99849.38;;;26.55
61189;BMP280;47054;39.716;2.904;2023-04-29T02:47:41;99865.47;;;26.62
61189;BMP280;47054;39.716;2.904;2023-04-29T02:50:45;99876.78;;;26.60
61189;BMP280;47054;39.716;2.904;2023-04-29T02:53:49;99879.19;;;26.58
61189;BMP280;47054;39.716;2.904;2023-04-29T02:56:33;99886.56;;;26.58
61189;BMP280;47054;39.716;2.904;2023-04-29T02:59:18;99888.53;;;26.57
61189;BMP280;47054;39.716;2.904;2023-04-29T03:02:02;99899.44;;;26.57
61189;BMP280;47054;39.716;2.904;2023-04-29T03:04:48;99882.38;;;26.57
61189;BMP280;47054;39.716;2.904;2023-04-29T03:07:32;99871.91;;;26.55
61189;BMP280;47054;39.716;2.904;2023-04-29T03:10:17;99863.75;;;26.55
61189;BMP280;47054;39.716;2.904;2023-04-29T03:13:02;99854.81;;;26.55
61189;BMP280;47054;39.716;2.904;2023-04-29T03:15:48;99863.88;;;26.52
61189;BMP280;47054;39.716;2.904;2023-04-29T03:18:33;99869.31;;;26.52
61189;BMP280;47054;39.716;2.904;2023-04-29T03:21:18;99879.00;;;26.53
61189;BMP280;47054;39.716;2.904;2023-04-29T03:24:03;99864.63;;;26.52
61189;BMP280;47054;39.716;2.904;2023-04-29T03:26:51;99851.09;;;26.40
61189;BMP280;47054;39.716;2.904;2023-04-29T03:29:38;99870.19;;;26.49
61189;BMP280;47054;39.716;2.904;2023-04-29T03:32:22;99865.00;;;26.42
61189;BMP280;47054;39.716;2.904;2023-04-29T03:35:08;99891.66;;;26.47
61189;BMP280;47054;39.716;2.904;2023-04-29T03:37:59;99914.13;;;26.47
61189;BMP280;47054;39.716;2.904;2023-04-29T03:40:48;99889.34;;;26.45
61189;BMP280;47054;39.716;2.904;2023-04-29T03:43:35;99879.66;;;26.44
61189;BMP280;47054;39.716;2.904;2023-04-29T03:46:20;99878.16;;;26.43
61189;BMP280;47054;39.716;2.904;2023-04-29T03:49:04;99859.13;;;26.43
61189;BMP280;47054;39.716;2.904;2023-04-29T03:51:49;99857.28;;;26.40
61189;BMP280;47054;39.716;2.904;2023-04-29T03:54:34;99848.69;;;26.42
61189;BMP280;47054;39.716;2.904;2023-04-29T03:57:19;99860.31;;;26.42
61189;BMP280;47054;39.716;2.904;2023-04-29T04:00:05;99828.13;;;26.41
61189;BMP280;47054;39.716;2.904;2023-04-29T04:02:58;99845.66;;;26.40
61189;BMP280;47054;39.716;2.904;2023-04-29T04:05:43;99844.44;;;26.41
61189;BMP280;47054;39.716;2.904;2023-04-29T04:08:31;99827.81;;;26.39
61189;BMP280;47054;39.716;2.904;2023-04-29T04:11:24;99830.53;;;26.39
61189;BMP280;47054;39.716;2.904;2023-04-29T04:14:14;99820.88;;;26.38
61189;BMP280;47054;39.716;2.904;2023-04-29T04:16:59;99822.06;;;26.37
61189;BMP280;47054;39.716;2.904;2023-04-29T04:19:44;99810.44;;;26.36
61189;BMP280;47054;39.716;2.904;2023-04-29T04:22:29;99796.09;;;26.36
61189;BMP280;47054;39.716;2.904;2023-04-29T04:25:29;99794.13;;;26.36
61189;BMP280;47054;39.716;2.904;2023-04-29T04:28:23;99788.81;;;26.33
61189;BMP280;47054;39.716;2.904;2023-04-29T04:31:16;99786.09;;;26.33
61189;BMP280;47054;39.716;2.904;2023-04-29T04:34:00;99774.47;;;26.32
61189;BMP280;47054;39.716;2.904;2023-04-29T04:36:47;99785.00;;;26.30
61189;BMP280;47054;39.716;2.904;2023-04-29T04:39:31;99792.72;;;26.32
61189;BMP280;47054;39.716;2.904;2023-04-29T04:42:16;99795.44;;;26.32
61189;BMP280;47054;39.716;2.904;2023-04-29T04:45:06;99800.88;;;26.32
61189;BMP280;47054;39.716;2.904;2023-04-29T04:48:01;99801.31;;;26.30
61189;BMP280;47054;39.716;2.904;2023-04-29T04:50:48;99803.28;;;26.30
61189;BMP280;47054;39.716;2.904;2023-04-29T04:53:33;99817.28;;;26.28
61189;BMP280;47054;39.716;2.904;2023-04-29T04:56:24;99809.59;;;26.26
61189;BMP280;47054;39.716;2.904;2023-04-29T04:59:10;99826.34;;;26.25
61189;BMP280;47054;39.716;2.904;2023-04-29T05:01:56;99831.03;;;26.24
61189;BMP280;47054;39.716;2.904;2023-04-29T05:04:41;99834.94;;;26.23
61189;BMP280;47054;39.716;2.904;2023-04-29T05:07:26;99811.69;;;26.22
61189;BMP280;47054;39.716;2.904;2023-04-29T05:10:18;99814.63;;;26.15
61189;BMP280;47054;39.716;2.904;2023-04-29T05:13:06;99799.19;;;26.12
61189;BMP280;47054;39.716;2.904;2023-04-29T05:15:52;99808.09;;;26.13
61189;BMP280;47054;39.716;2.904;2023-04-29T05:18:40;99825.63;;;26.12
61189;BMP280;47054;39.716;2.904;2023-04-29T05:21:28;99831.06;;;26.12
61189;BMP280;47054;39.716;2.904;2023-04-29T05:24:13;99822.16;;;26.11
61189;BMP280;47054;39.716;2.904;2023-04-29T05:26:58;99825.28;;;26.10
61189;BMP280;47054;39.716;2.904;2023-04-29T05:29:43;99828.00;;;26.10
61189;BMP280;47054;39.716;2.904;2023-04-29T05:32:29;99828.47;;;26.08
61189;BMP280;47054;39.716;2.904;2023-04-29T05:35:14;99828.47;;;26.08
61189;BMP280;47054;39.716;2.904;2023-04-29T05:37:59;99833.91;;;26.08
61189;BMP280;47054;39.716;2.904;2023-04-29T05:40:55;99830.84;;;26.06
61189;BMP280;47054;39.716;2.904;2023-04-29T05:44:03;99853.03;;;26.05
61189;BMP280;47054;39.716;2.904;2023-04-29T05:46:49;99850.34;;;26.05
61189;BMP280;47054;39.716;2.904;2023-04-29T05:49:36;99858.00;;;26.06
61189;BMP280;47054;39.716;2.904;2023-04-29T05:52:22;99866.94;;;26.07
61189;BMP280;47054;39.716;2.904;2023-04-29T05:55:07;99882.34;;;26.10
61189;BMP280;47054;39.716;2.904;2023-04-29T05:57:52;99889.63;;;26.13
61189;BMP280;47054;39.716;2.904;2023-04-29T06:00:37;99911.25;;;26.16
61189;BMP280;47054;39.716;2.904;2023-04-29T06:03:29;99923.97;;;26.19
61189;BMP280;47054;39.716;2.904;2023-04-29T06:06:50;99923.13;;;26.22
61189;BMP280;47054;39.716;2.904;2023-04-29T06:09:44;99905.16;;;26.25
61189;BMP280;47054;39.716;2.904;2023-04-29T06:12:29;99901.16;;;26.30
61189;BMP280;47054;39.716;2.904;2023-04-29T06:15:16;99891.66;;;26.34
61189;BMP280;47054;39.716;2.904;2023-04-29T06:18:01;99890.00;;;26.37
61189;BMP280;47054;39.716;2.904;2023-04-29T06:20:45;99894.91;;;26.42
61189;BMP280;47054;39.716;2.904;2023-04-29T06:23:32;99889.34;;;26.45
61189;BMP280;47054;39.716;2.904;2023-04-29T06:26:19;99875.22;;;26.50
61189;BMP280;47054;39.716;2.904;2023-04-29T06:29:05;99843.19;;;26.54
61189;BMP280;47054;39.716;2.904;2023-04-29T06:31:50;99852.47;;;26.57
61189;BMP280;47054;39.716;2.904;2023-04-29T06:34:35;99846.13;;;26.60
61189;BMP280;47054;39.716;2.904;2023-04-29T06:37:39;99874.81;;;26.61
61189;BMP280;47054;39.716;2.904;2023-04-29T06:40:30;99896.91;;;26.63
61189;BMP280;47054;39.716;2.904;2023-04-29T06:43:37;99884.09;;;26.63
61189;BMP280;47054;39.716;2.904;2023-04-29T06:46:48;99883.31;;;26.63
61189;BMP280;47054;39.716;2.904;2023-04-29T06:49:36;99901.13;;;26.64
61189;BMP280;47054;39.716;2.904;2023-04-29T06:52:22;99899.16;;;26.64
61189;BMP280;47054;39.716;2.904;2023-04-29T06:55:07;99873.94;;;26.64
61189;BMP280;47054;39.716;2.904;2023-04-29T06:57:52;99877.75;;;26.66
61189;BMP280;47054;39.716;2.904;2023-04-29T07:00:37;99887.88;;;26.66
61189;BMP280;47054;39.716;2.904;2023-04-29T07:03:22;99880.59;;;26.63
61189;BMP280;47054;39.716;2.904;2023-04-29T07:06:08;99887.88;;;26.66
61189;BMP280;47054;39.716;2.904;2023-04-29T07:08:52;99890.59;;;26.66
61189;BMP280;47054;39.716;2.904;2023-04-29T07:11:37;99895.25;;;26.65
61189;BMP280;47054;39.716;2.904;2023-04-29T07:14:21;99883.63;;;26.65
61189;BMP280;47054;39.716;2.904;2023-04-29T07:17:06;99887.09;;;26.65
61189;BMP280;47054;39.716;2.904;2023-04-29T07:19:50;99889.81;;;26.65
61189;BMP280;47054;39.716;2.904;2023-04-29T07:22:36;99885.56;;;26.64
61189;BMP280;47054;39.716;2.904;2023-04-29T07:25:21;99890.72;;;26.62
61189;BMP280;47054;39.716;2.904;2023-04-29T07:28:06;99879.06;;;26.62
61189;BMP280;47054;39.716;2.904;2023-04-29T07:30:52;99879.81;;;26.62
61189;BMP280;47054;39.716;2.904;2023-04-29T07:33:37;99893.44;;;26.62
61189;BMP280;47054;39.716;2.904;2023-04-29T07:36:22;99889.94;;;26.62
61189;BMP280;47054;39.716;2.904;2023-04-29T07:39:07;99900.81;;;26.62
61189;BMP280;47054;39.716;2.904;2023-04-29T07:41:51;99918.31;;;26.61
61189;BMP280;47054;39.716;2.904;2023-04-29T07:44:36;99916.84;;;26.60
61189;BMP280;47054;39.716;2.904;2023-04-29T07:47:20;99929.97;;;26.61
61189;BMP280;47054;39.716;2.904;2023-04-29T07:50:05;99925.72;;;26.60
61189;BMP280;47054;39.716;2.904;2023-04-29T07:52:50;99926.19;;;26.59
61189;BMP280;47054;39.716;2.904;2023-04-29T07:55:36;99909.88;;;26.59
61189;BMP280;47054;39.716;2.904;2023-04-29T07:58:21;99911.50;;;26.56
61189;BMP280;47054;39.716;2.904;2023-04-29T08:01:07;99916.06;;;26.59
61189;BMP280;47054;39.716;2.904;2023-04-29T08:03:51;99918.00;;;26.59
61189;BMP280;47054;39.716;2.904;2023-04-29T08:06:37;99913.34;;;26.59
61189;BMP280;47054;39.716;2.904;2023-04-29T08:09:21;99906.38;;;26.58
61189;BMP280;47054;39.716;2.904;2023-04-29T08:12:07;99914.13;;;26.60
61189;BMP280;47054;39.716;2.904;2023-04-29T08:14:51;99918.00;;;26.59
61189;BMP280;47054;39.716;2.904;2023-04-29T08:17:36;99918.00;;;26.59
61189;BMP280;47054;39.716;2.904;2023-04-29T08:20:21;99932.38;;;26.59
61189;BMP280;47054;39.716;2.904;2023-04-29T08:23:06;99948.69;;;26.59
61189;BMP280;47054;39.716;2.904;2023-04-29T08:25:50;99982.09;;;26.60
61189;BMP280;47054;39.716;2.904;2023-04-29T08:28:36;99964.25;;;26.59
61189;BMP280;47054;39.716;2.904;2023-04-29T08:31:20;99923.47;;;26.59
61189;BMP280;47054;39.716;2.904;2023-04-29T08:34:05;99882.38;;;26.57
61189;BMP280;47054;39.716;2.904;2023-04-29T08:36:50;99868.31;;;26.58
61189;BMP280;47054;39.716;2.904;2023-04-29T08:39:35;99848.09;;;26.59
61189;BMP280;47054;39.716;2.904;2023-04-29T08:42:32;99839.16;;;26.59
61189;BMP280;47054;39.716;2.904;2023-04-29T08:45:19;99845.78;;;26.58
61189;BMP280;47054;39.716;2.904;2023-04-29T08:48:05;99884.22;;;26.60
61189;BMP280;47054;39.716;2.904;2023-04-29T08:50:50;99891.59;;;26.59
61189;BMP280;47054;39.716;2.904;2023-04-29T08:53:35;99892.38;;;26.60
61189;BMP280;47054;39.716;2.904;2023-04-29T08:56:20;99916.06;;;26.59
61189;BMP280;47054;39.716;2.904;2023-04-29T08:59:06;99894.59;;;26.61
61189;BMP280;47054;39.716;2.904;2023-04-29T09:01:54;99889.16;;;26.61
61189;BMP280;47054;39.716;2.904;2023-04-29T09:04:51;99905.50;;;26.61
61189;BMP280;47054;39.716;2.904;2023-04-29T09:07:38;99915.59;;;26.61
61189;BMP280;47054;39.716;2.904;2023-04-29T09:10:25;99921.81;;;26.61
61189;BMP280;47054;39.716;2.904;2023-04-29T09:13:24;99914.41;;;26.62
61189;BMP280;47054;39.716;2.904;2023-04-29T09:16:12;99901.69;;;26.59
61189;BMP280;47054;39.716;2.904;2023-04-29T09:18:57;99892.38;;;26.60
61189;BMP280;47054;39.716;2.904;2023-04-29T09:21:53;99889.16;;;26.61
61189;BMP280;47054;39.716;2.904;2023-04-29T09:24:38;99874.06;;;26.60
61189;BMP280;47054;39.716;2.904;2023-04-29T09:27:26;99873.63;;;26.62
61189;BMP280;47054;39.716;2.904;2023-04-29T09:30:12;99874.06;;;26.60
61189;BMP280;47054;39.716;2.904;2023-04-29T09:33:03;99883.31;;;26.63
61189;BMP280;47054;39.716;2.904;2023-04-29T09:35:49;99891.88;;;26.61
61189;BMP280;47054;39.716;2.904;2023-04-29T09:38:34;99881.78;;;26.62
61189;BMP280;47054;39.716;2.904;2023-04-29T09:41:20;99890.72;;;26.62
61189;BMP280;47054;39.716;2.904;2023-04-29T09:44:06;99897.69;;;26.63
61189;BMP280;47054;39.716;2.904;2023-04-29T09:47:05;99903.41;;;26.65
61189;BMP280;47054;39.716;2.904;2023-04-29T09:49:50;99901.13;;;26.64
61189;BMP280;47054;39.716;2.904;2023-04-29T09:52:39;99908.84;;;26.65
61189;BMP280;47054;39.716;2.904;2023-04-29T09:55:25;99918.97;;;26.65
61189;BMP280;47054;39.716;2.904;2023-04-29T09:58:27;99909.91;;;26.68
61189;BMP280;47054;39.716;2.904;2023-04-29T10:01:13;99919.72;;;26.65
61189;BMP280;47054;39.716;2.904;2023-04-29T10:04:02;99924.00;;;26.66
61189;BMP280;47054;39.716;2.904;2023-04-29T10:06:51;99909.19;;;26.67
61189;BMP280;47054;39.716;2.904;2023-04-29T10:09:38;99918.84;;;26.68
61189;BMP280;47054;39.716;2.904;2023-04-29T10:12:24;99909.19;;;26.67
61189;BMP280;47054;39.716;2.904;2023-04-29T10:18:35;99912.97;;;26.70
61189;BMP280;47054;39.716;2.904;2023-04-29T10:21:27;99912.66;;;26.68
61189;BMP280;47054;39.716;2.904;2023-04-29T10:24:17;99907.53;;;26.70
61189;BMP280;47054;39.716;2.904;2023-04-29T10:27:06;99902.09;;;26.70
61189;BMP280;47054;39.716;2.904;2023-04-29T10:29:52;99905.56;;;26.70
61189;BMP280;47054;39.716;2.904;2023-04-29T10:32:42;99906.34;;;26.71
61189;BMP280;47054;39.716;2.904;2023-04-29T10:35:27;99901.63;;;26.71
61189;BMP280;47054;39.716;2.904;2023-04-29T10:38:48;99889.91;;;26.74
61189;BMP280;47054;39.716;2.904;2023-04-29T10:41:44;99898.06;;;26.74
61189;BMP280;47054;39.716;2.904;2023-04-29T10:44:30;99886.88;;;26.72
61189;BMP280;47054;39.716;2.904;2023-04-29T10:47:18;99885.22;;;26.75
61189;BMP280;47054;39.716;2.904;2023-04-29T10:50:03;99879.03;;;26.74
61189;BMP280;47054;39.716;2.904;2023-04-29T10:52:51;99879.31;;;26.76
61189;BMP280;47054;39.716;2.904;2023-04-29T10:55:37;99867.69;;;26.76
61189;BMP280;47054;39.716;2.904;2023-04-29T10:58:44;99871.81;;;26.80
61189;BMP280;47054;39.716;2.904;2023-04-29T11:04:25;99863.75;;;26.77
61189;BMP280;47054;39.716;2.904;2023-04-29T11:07:25;99856.69;;;26.79
61189;BMP280;47054;39.716;2.904;2023-04-29T11:10:12;99858.66;;;26.79
61189;BMP280;47054;39.716;2.904;2023-04-29T11:13:28;99859.75;;;26.81
61189;BMP280;47054;39.716;2.904;2023-04-29T11:16:13;99862.59;;;26.78
61189;BMP280;47054;39.716;2.904;2023-04-29T11:19:16;99857.75;;;26.82
61189;BMP280;47054;39.716;2.904;2023-04-29T11:25:04;99871.81;;;26.80
61189;BMP280;47054;39.716;2.904;2023-04-29T11:27:50;99879.53;;;26.82
61189;BMP280;47054;39.716;2.904;2023-04-29T11:30:35;99875.59;;;26.83
61189;BMP280;47054;39.716;2.904;2023-04-29T11:33:20;99885.28;;;26.84
61189;BMP280;47054;39.716;2.904;2023-04-29T11:36:04;99886.81;;;26.85
61189;BMP280;47054;39.716;2.904;2023-04-29T11:38:49;99890.28;;;26.85
61189;BMP280;47054;39.716;2.904;2023-04-29T11:41:34;99891.03;;;26.86
61189;BMP280;47054;39.716;2.904;2023-04-29T11:44:21;99898.00;;;26.87
61189;BMP280;47054;39.716;2.904;2023-04-29T11:47:08;99904.22;;;26.87
61189;BMP280;47054;39.716;2.904;2023-04-29T11:49:53;99898.78;;;26.87
61189;BMP280;47054;39.716;2.904;2023-04-29T11:52:38;99903.00;;;26.88
61189;BMP280;47054;39.716;2.904;2023-04-29T11:55:23;99905.28;;;26.90
61189;BMP280;47054;39.716;2.904;2023-04-29T11:58:09;99902.66;;;26.86
61189;BMP280;47054;39.716;2.904;2023-04-29T12:00:53;99903.31;;;26.90
61189;BMP280;47054;39.716;2.904;2023-04-29T12:03:38;99905.28;;;26.90
61189;BMP280;47054;39.716;2.904;2023-04-29T12:06:27;99899.06;;;26.89
61189;BMP280;47054;39.716;2.904;2023-04-29T12:09:12;99901.38;;;26.91
61189;BMP280;47054;39.716;2.904;2023-04-29T12:11:59;99902.84;;;26.92
61189;BMP280;47054;39.716;2.904;2023-04-29T12:14:43;99907.09;;;26.93
61189;BMP280;47054;39.716;2.904;2023-04-29T12:17:28;99901.66;;;26.93
61189;BMP280;47054;39.716;2.904;2023-04-29T12:20:13;99905.91;;;26.94
61189;BMP280;47054;39.716;2.904;2023-04-29T12:23:16;99915.16;;;26.96
61189;BMP280;47054;39.716;2.904;2023-04-29T12:26:06;99907.47;;;26.95
61189;BMP280;47054;39.716;2.904;2023-04-29T12:28:53;99908.16;;;26.95
61189;BMP280;47054;39.716;2.904;2023-04-29T12:31:38;99913.31;;;26.93
61189;BMP280;47054;39.716;2.904;2023-04-29T12:34:27;99887.94;;;26.96
61189;BMP280;47054;39.716;2.904;2023-04-29T12:37:14;99888.69;;;26.97
61189;BMP280;47054;39.716;2.904;2023-04-29T12:39:58;99884.44;;;26.96
61189;BMP280;47054;39.716;2.904;2023-04-29T12:42:43;99884.78;;;26.98
61189;BMP280;47054;39.716;2.904;2023-04-29T12:45:32;99890.97;;;26.98
61189;BMP280;47054;39.716;2.904;2023-04-29T12:48:17;99883.56;;;26.99
61189;BMP280;47054;39.716;2.904;2023-04-29T12:51:03;99885.22;;;26.96
61189;BMP280;47054;39.716;2.904;2023-04-29T12:53:48;99885.84;;;27.00
61189;BMP280;47054;39.716;2.904;2023-04-29T12:56:32;99878.47;;;27.01
61189;BMP280;47054;39.716;2.904;2023-04-29T12:59:17;99883.91;;;27.01
61189;BMP280;47054;39.716;2.904;2023-04-29T13:02:01;99876.47;;;27.01
61189;BMP280;47054;39.716;2.904;2023-04-29T13:04:47;99873.31;;;27.03
61189;BMP280;47054;39.716;2.904;2023-04-29T13:07:31;99872.66;;;26.99
61189;BMP280;47054;39.716;2.904;2023-04-29T13:10:16;99877.25;;;27.02
61189;BMP280;47054;39.716;2.904;2023-04-29T13:13:01;99884.97;;;27.03
61189;BMP280;47054;39.716;2.904;2023-04-29T13:15:46;99881.06;;;27.04
61189;BMP280;47054;39.716;2.904;2023-04-29T13:18:30;99875.63;;;27.04
61189;BMP280;47054;39.716;2.904;2023-04-29T13:21:16;99878.34;;;27.04
61189;BMP280;47054;39.716;2.904;2023-04-29T13:24:00;99875.91;;;27.06
61189;BMP280;47054;39.716;2.904;2023-04-29T13:26:45;99884.06;;;27.06
61189;BMP280;47054;39.716;2.904;2023-04-29T13:29:31;99883.31;;;27.06
61189;BMP280;47054;39.716;2.904;2023-04-29T13:32:16;99873.94;;;27.07
61189;BMP280;47054;39.716;2.904;2023-04-29T13:35:01;99864.50;;;26.99
61189;BMP280;47054;39.716;2.904;2023-04-29T13:37:45;99877.00;;;27.09
61189;BMP280;47054;39.716;2.904;2023-04-29T13:40:31;99876.22;;;27.08
61189;BMP280;47054;39.716;2.904;2023-04-29T13:43:15;99875.00;;;27.09
61189;BMP280;47054;39.716;2.904;2023-04-29T13:46:00;99885.16;;;27.09
61189;BMP280;47054;39.716;2.904;2023-04-29T13:48:45;99877.72;;;27.09
61189;BMP280;47054;39.716;2.904;2023-04-29T13:51:30;99877.28;;;27.11
61189;BMP280;47054;39.716;2.904;2023-04-29T13:54:15;99886.22;;;27.11
61189;BMP280;47054;39.716;2.904;2023-04-29T13:57:02;99879.28;;;27.10
61189;BMP280;47054;39.716;2.904;2023-04-29T13:59:48;99882.72;;;27.11
61189;BMP280;47054;39.716;2.904;2023-04-29T14:02:36;99878.06;;;27.11
61189;BMP280;47054;39.716;2.904;2023-04-29T14:05:20;99867.16;;;27.11
61189;BMP280;47054;39.716;2.904;2023-04-29T14:08:05;99866.72;;;27.13
61189;BMP280;47054;39.716;2.904;2023-04-29T14:10:49;99864.00;;;27.13
61189;BMP280;47054;39.716;2.904;2023-04-29T14:13:34;99871.72;;;27.14
61189;BMP280;47054;39.716;2.904;2023-04-29T14:16:19;99870.22;;;27.13
61189;BMP280;47054;39.716;2.904;2023-04-29T14:19:04;99868.22;;;27.14
61189;BMP280;47054;39.716;2.904;2023-04-29T14:21:48;99863.56;;;27.14
61189;BMP280;47054;39.716;2.904;2023-04-29T14:24:32;99865.09;;;27.15
61189;BMP280;47054;39.716;2.904;2023-04-29T14:27:17;99866.59;;;27.16
61189;BMP280;47054;39.716;2.904;2023-04-29T14:30:02;99878.22;;;27.17
61189;BMP280;47054;39.716;2.904;2023-04-29T14:32:48;99884.88;;;27.16
61189;BMP280;47054;39.716;2.904;2023-04-29T14:35:33;99881.72;;;27.17
61189;BMP280;47054;39.716;2.904;2023-04-29T14:38:18;99887.91;;;27.18
61189;BMP280;47054;39.716;2.904;2023-04-29T14:41:02;99883.66;;;27.17
61189;BMP280;47054;39.716;2.904;2023-04-29T14:43:46;99876.25;;;27.17
61189;BMP280;47054;39.716;2.904;2023-04-29T14:46:32;99878.56;;;27.19
61189;BMP280;47054;39.716;2.904;2023-04-29T14:49:16;99878.09;;;27.20
61189;BMP280;47054;39.716;2.904;2023-04-29T14:52:01;99878.56;;;27.19
61189;BMP280;47054;39.716;2.904;2023-04-29T14:54:46;99870.41;;;27.19
61189;BMP280;47054;39.716;2.904;2023-04-29T14:57:30;99870.41;;;27.19
61189;BMP280;47054;39.716;2.904;2023-04-29T15:00:15;99869.91;;;27.20
61189;BMP280;47054;39.716;2.904;2023-04-29T15:03:00;99869.91;;;27.20
61189;BMP280;47054;39.716;2.904;2023-04-29T15:05:45;99854.50;;;27.17
61189;BMP280;47054;39.716;2.904;2023-04-29T15:08:30;99867.19;;;27.20
61189;BMP280;47054;39.716;2.904;2023-04-29T15:11:14;99860.56;;;27.21
61189;BMP280;47054;39.716;2.904;2023-04-29T15:13:59;99848.16;;;27.20
61189;BMP280;47054;39.716;2.904;2023-04-29T15:16:43;99869.50;;;27.22
61189;BMP280;47054;39.716;2.904;2023-04-29T15:19:27;99868.28;;;27.23
61189;BMP280;47054;39.716;2.904;2023-04-29T15:22:12;99855.41;;;27.23
61189;BMP280;47054;39.716;2.904;2023-04-29T15:24:56;99869.03;;;27.23
61189;BMP280;47054;39.716;2.904;2023-04-29T15:27:41;99856.94;;;27.24
61189;BMP280;47054;39.716;2.904;2023-04-29T15:30:26;99857.72;;;27.25
61189;BMP280;47054;39.716;2.904;2023-04-29T15:33:10;99860.44;;;27.25
61189;BMP280;47054;39.716;2.904;2023-04-29T15:35:55;99861.97;;;27.26
61189;BMP280;47054;39.716;2.904;2023-04-29T15:38:40;99859.25;;;27.26
61189;BMP280;47054;39.716;2.904;2023-04-29T15:41:24;99859.25;;;27.26
61189;BMP280;47054;39.716;2.904;2023-04-29T15:44:09;99851.78;;;27.26
61189;BMP280;47054;39.716;2.904;2023-04-29T15:46:54;99860.44;;;27.25
61189;BMP280;47054;39.716;2.904;2023-04-29T15:49:40;99863.03;;;27.28
61189;BMP280;47054;39.716;2.904;2023-04-29T15:52:25;99861.50;;;27.27
61189;BMP280;47054;39.716;2.904;2023-04-29T15:55:10;99865.75;;;27.28
61189;BMP280;47054;39.716;2.904;2023-04-29T15:57:55;99875.88;;;27.28
61189;BMP280;47054;39.716;2.904;2023-04-29T16:00:39;99877.41;;;27.29
61189;BMP280;47054;39.716;2.904;2023-04-29T16:03:24;99876.16;;;27.30
61189;BMP280;47054;39.716;2.904;2023-04-29T16:06:08;99876.16;;;27.30
61189;BMP280;47054;39.716;2.904;2023-04-29T16:08:53;99874.22;;;27.30
61189;BMP280;47054;39.716;2.904;2023-04-29T16:11:40;99867.59;;;27.31
61189;BMP280;47054;39.716;2.904;2023-04-29T16:14:25;99868.00;;;27.30
61189;BMP280;47054;39.716;2.904;2023-04-29T16:17:09;99851.25;;;27.31